Time;durP1;ratioP1;P1;durP2;ratioP2;P2;SDS_P1;SDS_P2;PMS_P1;PMS_P2;Temp;Humidity;BMP_temperature;BMP_pressure;BME280_temperature;BME280_humidity;BME280_pressure;Samples;Min_cycle;Max_cycle;Signal;HPM_P1;HPM_P2
2022/04/10 00:00:05;;;;;;;14.63;3.25;;;3.30;99.90;;;;;;5014742;28;20518;-82
2022/04/10 00:02:30;;;;;;;8.68;2.40;;;3.40;99.90;;;;;;5031042;28;20406;-82
2022/04/10 00:04:56;;;;;;;10.25;2.53;;;3.40;99.90;;;;;;5031520;28;20498;-82
2022/04/10 00:07:21;;;;;;;11.88;1.83;;;3.40;99.90;;;;;;5014974;28;20048;-82
2022/04/10 00:09:47;;;;;;;9.68;2.35;;;3.40;99.90;;;;;;5031176;28;20073;-82
2022/04/10 00:12:12;;;;;;;8.18;1.50;;;3.40;99.90;;;;;;5031311;28;20083;-82
2022/04/10 00:14:38;;;;;;;9.45;1.55;;;3.40;99.90;;;;;;5031308;28;20033;-82
2022/04/10 00:17:04;;;;;;;6.05;1.65;;;3.40;99.90;;;;;;5031577;28;20044;-82
2022/04/10 00:19:29;;;;;;;14.63;2.75;;;3.40;99.90;;;;;;5014343;28;20556;-82
2022/04/10 00:21:55;;;;;;;6.80;1.35;;;3.40;99.90;;;;;;5014543;28;20037;-82
2022/04/10 00:24:25;;;;;;;10.93;1.92;;;3.40;99.90;;;;;;5031090;28;20040;-82
2022/04/10 00:26:53;;;;;;;8.45;1.73;;;3.40;99.90;;;;;;5031121;28;20037;-82
2022/04/10 00:29:19;;;;;;;7.80;1.33;;;3.40;99.90;;;;;;5014541;28;20047;-82
2022/04/10 00:31:45;;;;;;;10.32;2.03;;;3.40;99.90;;;;;;5031126;28;20041;-82
2022/04/10 00:34:11;;;;;;;10.18;1.95;;;3.40;99.90;;;;;;5029641;28;20041;-82
2022/04/10 00:36:36;;;;;;;6.93;2.00;;;3.40;99.90;;;;;;5030770;28;20053;-82
2022/04/10 00:39:03;;;;;;;11.73;2.03;;;3.40;99.90;;;;;;5031013;28;20048;-82
2022/04/10 00:41:29;;;;;;;10.55;1.85;;;3.40;99.90;;;;;;5030461;28;20044;-82
2022/04/10 00:44:09;;;;;;;10.77;1.88;;;3.30;99.90;;;;;;5030710;28;20116;-82
2022/04/10 00:46:36;;;;;;;8.77;2.15;;;3.20;99.90;;;;;;5030947;28;20452;-82
2022/04/10 00:49:02;;;;;;;8.63;1.55;;;3.20;99.90;;;;;;5032069;28;20616;-82
2022/04/10 00:51:40;;;;;;;10.65;1.85;;;3.10;99.90;;;;;;5030354;28;20055;-82
2022/04/10 00:54:21;;;;;;;4.53;1.50;;;3.00;99.90;;;;;;5030562;28;20230;-82
2022/04/10 00:56:47;;;;;;;12.60;1.67;;;2.90;99.90;;;;;;5030993;28;20367;-82
2022/04/10 00:59:14;;;;;;;10.98;1.85;;;2.80;99.90;;;;;;5013903;28;20494;-82
2022/04/10 01:01:44;;;;;;;10.27;1.65;;;2.70;99.90;;;;;;5030407;28;20040;-82
2022/04/10 01:04:11;;;;;;;10.68;1.90;;;2.70;99.90;;;;;;5014077;28;20040;-82
2022/04/10 01:06:37;;;;;;;10.10;2.20;;;2.60;99.90;;;;;;5030459;28;20083;-82
2022/04/10 01:09:04;;;;;;;12.43;1.88;;;2.50;99.90;;;;;;5030354;28;20053;-82
2022/04/10 01:11:30;;;;;;;13.40;2.17;;;2.50;99.90;;;;;;5013600;28;20065;-82
2022/04/10 01:13:56;;;;;;;9.73;2.25;;;2.50;99.90;;;;;;5013936;28;20069;-82
2022/04/10 01:16:22;;;;;;;9.63;2.10;;;2.50;99.90;;;;;;5030711;28;20053;-82
2022/04/10 01:18:50;;;;;;;11.63;2.28;;;2.40;99.90;;;;;;5030266;28;20046;-82
2022/04/10 01:21:23;;;;;;;8.85;2.00;;;2.40;99.90;;;;;;5030016;28;20450;-82
2022/04/10 01:23:49;;;;;;;7.60;1.90;;;2.50;99.90;;;;;;5030273;28;20041;-82
2022/04/10 01:26:15;;;;;;;9.45;3.17;;;2.40;99.90;;;;;;5030414;28;20144;-82
2022/04/10 01:29:04;;;;;;;15.90;2.03;;;2.40;99.90;;;;;;5030240;28;20057;-82
2022/04/10 01:31:31;;;;;;;13.52;2.28;;;2.40;99.90;;;;;;5013762;28;20433;-82
2022/04/10 01:34:00;;;;;;;14.00;2.22;;;2.40;99.90;;;;;;5013651;28;20053;-82
2022/04/10 01:36:27;;;;;;;9.55;2.70;;;2.40;99.90;;;;;;5030254;28;20041;-82
2022/04/10 01:38:55;;;;;;;11.27;2.50;;;2.40;99.90;;;;;;5013632;28;20049;-82
2022/04/10 01:41:21;;;;;;;10.35;2.30;;;2.30;99.90;;;;;;5030078;28;20468;-82
2022/04/10 01:43:49;;;;;;;9.00;2.30;;;2.30;99.90;;;;;;5030097;28;20049;-82
2022/04/10 01:46:15;;;;;;;8.48;2.13;;;2.30;99.90;;;;;;5013649;28;20445;-82
2022/04/10 01:48:41;;;;;;;10.73;2.17;;;2.30;99.90;;;;;;5030221;28;20041;-82
2022/04/10 01:51:08;;;;;;;10.38;2.08;;;2.20;99.90;;;;;;5029571;28;20044;-82
2022/04/10 01:53:35;;;;;;;9.05;2.08;;;2.20;99.90;;;;;;5029987;28;20040;-82
2022/04/10 01:56:01;;;;;;;12.52;2.47;;;2.20;99.90;;;;;;5030399;28;20399;-82
2022/04/10 01:58:27;;;;;;;6.70;1.52;;;2.20;99.90;;;;;;5030236;28;20045;-81
2022/04/10 02:00:52;;;;;;;11.05;2.22;;;2.20;99.90;;;;;;5013238;28;20108;-82
2022/04/10 02:03:18;;;;;;;9.75;2.38;;;2.20;99.90;;;;;;5030182;28;20048;-82
2022/04/10 02:05:43;;;;;;;10.70;2.35;;;2.20;99.90;;;;;;5029802;28;20565;-82
2022/04/10 02:08:09;;;;;;;10.65;2.10;;;2.10;99.90;;;;;;5030013;28;20095;-82
2022/04/10 02:10:35;;;;;;;8.52;2.10;;;2.10;99.90;;;;;;5029797;28;20045;-82
2022/04/10 02:13:00;;;;;;;11.18;2.22;;;2.10;99.90;;;;;;5030127;28;20088;-82
2022/04/10 02:15:26;;;;;;;11.27;2.25;;;2.10;99.90;;;;;;5029931;28;20038;-82
2022/04/10 02:17:51;;;;;;;9.70;2.00;;;2.10;99.90;;;;;;5013357;28;20087;-82
2022/04/10 02:20:17;;;;;;;13.68;2.15;;;2.10;99.90;;;;;;5013413;28;20037;-82
2022/04/10 02:22:43;;;;;;;11.00;2.10;;;2.20;99.90;;;;;;5013079;28;20517;-82
2022/04/10 02:25:09;;;;;;;12.13;2.30;;;2.20;99.90;;;;;;5031931;28;20048;-81
2022/04/10 02:27:34;;;;;;;13.23;2.78;;;2.20;99.90;;;;;;5016943;28;20038;-82
2022/04/10 02:30:00;;;;;;;13.75;2.28;;;2.20;99.90;;;;;;5033192;28;20096;-82
2022/04/10 02:32:25;;;;;;;14.05;2.42;;;2.20;99.90;;;;;;5033268;28;20518;-81
2022/04/10 02:34:51;;;;;;;13.90;2.63;;;2.10;99.90;;;;;;5033353;28;20044;-82
2022/04/10 02:37:16;;;;;;;8.68;1.75;;;2.10;99.90;;;;;;5033203;28;20037;-82
2022/04/10 02:39:43;;;;;;;8.40;1.92;;;2.10;99.90;;;;;;5016341;28;20040;-81
2022/04/10 02:42:09;;;;;;;8.50;1.90;;;2.10;99.90;;;;;;5033045;28;20041;-81
2022/04/10 02:44:34;;;;;;;9.48;2.63;;;2.10;99.90;;;;;;5033047;28;20033;-82
2022/04/10 02:47:00;;;;;;;11.75;2.30;;;2.00;99.90;;;;;;5033072;28;20410;-81
2022/04/10 02:49:25;;;;;;;15.13;2.60;;;2.10;99.90;;;;;;5032874;28;20065;-82
2022/04/10 02:51:51;;;;;;;8.93;2.22;;;2.10;99.90;;;;;;5032557;28;20116;-82
2022/04/10 02:54:17;;;;;;;9.80;2.05;;;2.20;99.90;;;;;;5033193;28;20098;-82
2022/04/10 02:56:42;;;;;;;14.05;2.85;;;2.20;99.90;;;;;;5032927;28;20041;-82
2022/04/10 02:59:08;;;;;;;12.95;2.45;;;2.30;99.90;;;;;;5016132;28;20037;-82
2022/04/10 03:01:34;;;;;;;16.33;2.72;;;2.30;99.90;;;;;;5032526;28;20122;-82
2022/04/10 03:04:00;;;;;;;11.55;2.40;;;2.30;99.90;;;;;;5032712;28;20073;-82
2022/04/10 03:06:26;;;;;;;12.05;2.30;;;2.30;99.90;;;;;;5033038;28;20108;-81
2022/04/10 03:08:51;;;;;;;16.58;2.58;;;2.30;99.90;;;;;;5032578;28;20045;-82
2022/04/10 03:11:18;;;;;;;8.35;2.60;;;2.30;99.90;;;;;;5032456;28;20041;-82
2022/04/10 03:13:44;;;;;;;14.23;2.75;;;2.30;99.90;;;;;;5016163;28;20029;-82
2022/04/10 03:16:10;;;;;;;9.50;2.38;;;2.30;99.90;;;;;;5016006;28;20419;-81
2022/04/10 03:18:36;;;;;;;11.48;3.17;;;2.30;99.90;;;;;;5032369;28;20091;-82
2022/04/10 03:21:02;;;;;;;14.32;2.30;;;2.30;99.90;;;;;;5032304;28;20037;-82
2022/04/10 03:23:27;;;;;;;13.32;2.80;;;2.30;99.90;;;;;;5032308;28;20091;-82
2022/04/10 03:25:53;;;;;;;9.73;2.17;;;2.30;99.90;;;;;;5032697;28;20033;-82
2022/04/10 03:28:18;;;;;;;9.32;2.40;;;2.30;99.90;;;;;;5032123;28;20049;-82
2022/04/10 03:30:44;;;;;;;14.23;2.25;;;2.20;99.90;;;;;;5031980;28;20042;-82
2022/04/10 03:33:10;;;;;;;10.55;2.15;;;2.20;99.90;;;;;;5032333;28;20045;-82
2022/04/10 03:35:36;;;;;;;12.43;2.42;;;2.20;99.90;;;;;;5031247;28;20481;-82
2022/04/10 03:38:02;;;;;;;13.82;2.40;;;2.20;99.90;;;;;;5031896;28;20047;-82
2022/04/10 03:40:27;;;;;;;10.55;2.25;;;2.20;99.90;;;;;;5015327;28;20033;-82
2022/04/10 03:42:53;;;;;;;9.32;1.70;;;2.20;99.90;;;;;;5031799;28;20080;-82
2022/04/10 03:45:18;;;;;;;9.07;2.08;;;2.20;99.90;;;;;;5015465;28;20060;-82
2022/04/10 03:47:46;;;;;;;12.77;2.10;;;2.20;99.90;;;;;;5032232;28;20043;-81
2022/04/10 03:50:11;;;;;;;8.70;2.08;;;2.20;99.90;;;;;;5031846;28;20051;-82
2022/04/10 03:52:37;;;;;;;12.73;2.65;;;2.30;99.90;;;;;;5015166;28;20502;-82
2022/04/10 03:55:03;;;;;;;17.13;2.60;;;2.30;99.90;;;;;;5031787;28;20091;-82
2022/04/10 03:57:28;;;;;;;12.73;2.13;;;2.30;99.90;;;;;;5014968;28;20053;-82
2022/04/10 03:59:54;;;;;;;8.35;1.83;;;2.40;99.90;;;;;;5031274;28;20037;-82
2022/04/10 04:02:22;;;;;;;12.85;2.75;;;2.40;99.90;;;;;;5031885;28;20041;-82
2022/04/10 04:04:49;;;;;;;11.00;2.25;;;2.40;99.90;;;;;;5031601;28;20046;-82
2022/04/10 04:07:16;;;;;;;9.77;1.75;;;2.40;99.90;;;;;;5031759;28;20099;-82
2022/04/10 04:09:41;;;;;;;11.82;2.03;;;2.40;99.90;;;;;;5031356;28;20048;-82
2022/04/10 04:12:08;;;;;;;7.55;2.47;;;2.40;99.90;;;;;;5015006;28;20115;-82
2022/04/10 04:14:34;;;;;;;11.82;2.78;;;2.50;99.90;;;;;;5015289;28;20045;-82
2022/04/10 04:17:00;;;;;;;12.48;2.28;;;2.50;99.90;;;;;;5015283;28;20037;-82
2022/04/10 04:19:25;;;;;;;14.40;2.58;;;2.50;99.90;;;;;;5031281;28;20410;-81
2022/04/10 04:21:51;;;;;;;9.93;2.85;;;2.60;99.90;;;;;;5014838;28;20380;-82
2022/04/10 04:24:17;;;;;;;14.23;2.25;;;2.60;99.90;;;;;;5031261;28;20041;-82
2022/04/10 04:26:42;;;;;;;10.13;1.88;;;2.70;99.90;;;;;;5031541;28;20037;-82
2022/04/10 04:29:08;;;;;;;11.88;1.80;;;2.70;99.90;;;;;;5031022;28;20422;-82
2022/04/10 04:31:33;;;;;;;8.55;1.98;;;2.70;99.90;;;;;;5014372;28;20091;-82
2022/04/10 04:33:59;;;;;;;8.40;1.73;;;2.80;99.90;;;;;;5031073;28;20095;-82
2022/04/10 04:36:24;;;;;;;9.25;1.98;;;2.80;99.90;;;;;;5031208;28;20099;-82
2022/04/10 04:38:50;;;;;;;8.50;1.65;;;2.90;99.90;;;;;;5014550;28;20042;-82
2022/04/10 04:41:15;;;;;;;10.05;1.52;;;2.90;99.90;;;;;;5031574;28;20041;-82
2022/04/10 04:43:41;;;;;;;7.05;1.70;;;2.90;99.90;;;;;;5032263;28;20041;-82
2022/04/10 04:46:06;;;;;;;6.90;1.50;;;3.00;99.90;;;;;;5032029;28;20052;-81
2022/04/10 04:48:32;;;;;;;5.55;1.45;;;3.00;99.90;;;;;;5031423;28;20038;-82
2022/04/10 04:51:00;;;;;;;6.28;1.52;;;3.00;99.90;;;;;;5030992;28;20045;-82
2022/04/10 04:53:26;;;;;;;7.95;1.80;;;3.10;99.90;;;;;;5030586;28;20060;-82
2022/04/10 04:55:51;;;;;;;6.75;1.75;;;3.10;99.90;;;;;;5030651;28;20042;-82
2022/04/10 04:58:17;;;;;;;11.50;2.20;;;3.10;99.90;;;;;;5030790;28;20042;-82
2022/04/10 05:00:42;;;;;;;7.80;1.80;;;3.10;99.90;;;;;;5030654;28;20392;-82
2022/04/10 05:03:08;;;;;;;8.80;1.70;;;3.10;99.90;;;;;;5030433;28;20533;-82
2022/04/10 05:05:33;;;;;;;8.02;2.10;;;3.10;99.90;;;;;;5030552;28;20034;-82
2022/04/10 05:07:59;;;;;;;11.68;1.88;;;3.10;99.90;;;;;;5028503;28;20037;-82
2022/04/10 05:10:24;;;;;;;14.75;2.35;;;3.00;99.90;;;;;;5029732;28;20049;-82
2022/04/10 05:12:50;;;;;;;9.15;1.75;;;3.00;99.90;;;;;;5029325;28;20546;-82
2022/04/10 05:15:15;;;;;;;8.07;1.83;;;2.90;99.90;;;;;;5029317;28;20537;-82
2022/04/10 05:17:41;;;;;;;9.85;2.45;;;2.90;99.90;;;;;;5027091;28;20045;-82
2022/04/10 05:20:08;;;;;;;11.85;2.03;;;2.90;99.90;;;;;;5028808;28;20085;-81
2022/04/10 05:22:34;;;;;;;13.90;2.00;;;2.80;99.90;;;;;;5029100;28;20040;-82
2022/04/10 05:25:00;;;;;;;14.25;2.83;;;2.80;99.90;;;;;;5012606;28;20037;-82
2022/04/10 05:27:25;;;;;;;10.02;2.17;;;2.80;99.90;;;;;;5028254;28;20048;-82
2022/04/10 05:29:51;;;;;;;12.88;2.28;;;2.80;99.90;;;;;;5029725;28;20052;-82
2022/04/10 05:32:17;;;;;;;10.75;2.05;;;2.80;99.90;;;;;;5013371;28;20037;-82
2022/04/10 05:34:43;;;;;;;8.40;1.90;;;2.80;99.90;;;;;;5013359;28;20029;-82
2022/04/10 05:37:08;;;;;;;14.70;2.40;;;2.80;99.90;;;;;;5029883;28;20034;-82
2022/04/10 05:39:34;;;;;;;9.23;2.05;;;2.90;99.90;;;;;;5029606;28;20084;-82
2022/04/10 05:41:59;;;;;;;12.82;2.88;;;3.00;99.90;;;;;;5013847;28;20098;-82
2022/04/10 05:44:25;;;;;;;8.68;2.50;;;3.10;99.90;;;;;;5030204;28;20120;-82
2022/04/10 05:46:50;;;;;;;12.63;2.65;;;3.20;99.90;;;;;;5030086;28;20135;-82
2022/04/10 05:49:16;;;;;;;10.93;1.50;;;3.30;99.90;;;;;;5030000;28;20046;-82
2022/04/10 05:51:42;;;;;;;11.25;1.95;;;3.40;99.90;;;;;;5029637;28;20041;-82
2022/04/10 05:54:07;;;;;;;8.43;1.63;;;3.50;99.90;;;;;;5013213;28;20525;-82
2022/04/10 05:56:33;;;;;;;8.10;2.00;;;3.60;99.90;;;;;;5029737;28;20208;-82
2022/04/10 05:58:58;;;;;;;6.72;1.65;;;3.70;99.90;;;;;;5014038;28;20498;-82
2022/04/10 06:01:24;;;;;;;9.20;1.52;;;3.80;99.90;;;;;;5033679;28;20522;-82
2022/04/10 06:03:50;;;;;;;6.78;1.40;;;3.90;99.90;;;;;;5034029;28;20497;-82
2022/04/10 06:06:15;;;;;;;5.10;1.48;;;3.90;99.90;;;;;;5017425;28;20499;-82
2022/04/10 06:08:41;;;;;;;7.05;1.88;;;4.00;99.90;;;;;;5033656;28;20121;-82
2022/04/10 06:11:07;;;;;;;6.28;1.48;;;4.00;99.90;;;;;;5033346;28;20147;-82
2022/04/10 06:13:32;;;;;;;6.88;1.30;;;4.00;99.90;;;;;;5017026;28;20045;-81
2022/04/10 06:15:58;;;;;;;8.25;1.55;;;4.10;99.90;;;;;;5033292;28;20041;-82
2022/04/10 06:18:23;;;;;;;4.05;1.10;;;4.10;99.90;;;;;;5033246;28;20128;-82
2022/04/10 06:20:49;;;;;;;5.28;1.48;;;4.20;99.90;;;;;;5032995;28;20124;-83
2022/04/10 06:23:15;;;;;;;5.57;1.60;;;4.30;99.90;;;;;;5033187;28;20156;-82
2022/04/10 06:25:41;;;;;;;7.93;1.50;;;4.30;99.90;;;;;;5033234;28;20155;-83
2022/04/10 06:28:06;;;;;;;9.55;2.05;;;4.30;99.90;;;;;;5033373;28;20091;-83
2022/04/10 06:30:32;;;;;;;5.25;1.25;;;4.40;99.90;;;;;;5033105;28;20423;-82
2022/04/10 06:32:57;;;;;;;6.47;1.15;;;4.40;99.90;;;;;;5016853;28;20406;-82
2022/04/10 06:35:24;;;;;;;5.45;1.58;;;4.40;99.90;;;;;;5032669;28;20503;-83
2022/04/10 06:37:49;;;;;;;4.90;1.10;;;4.40;99.90;;;;;;5032978;28;20053;-82
2022/04/10 06:40:15;;;;;;;5.90;1.48;;;4.30;99.90;;;;;;5032604;28;20041;-82
2022/04/10 06:42:41;;;;;;;8.38;1.48;;;4.40;99.90;;;;;;5032860;28;20042;-82
2022/04/10 06:45:07;;;;;;;3.70;1.00;;;4.50;99.90;;;;;;5016462;28;20116;-82
2022/04/10 06:47:33;;;;;;;4.88;1.63;;;4.60;99.90;;;;;;5016227;28;20033;-82
2022/04/10 06:49:59;;;;;;;7.35;1.30;;;4.70;99.90;;;;;;5032671;28;20124;-82
2022/04/10 06:52:24;;;;;;;5.93;1.25;;;4.70;99.90;;;;;;5032536;28;20042;-82
2022/04/10 06:54:50;;;;;;;4.30;1.35;;;4.80;99.90;;;;;;5032172;28;20041;-82
2022/04/10 06:57:15;;;;;;;5.47;1.20;;;4.80;99.90;;;;;;5016026;28;20122;-83
2022/04/10 06:59:41;;;;;;;5.28;1.20;;;4.90;99.90;;;;;;5032336;28;20080;-82
2022/04/10 07:02:07;;;;;;;6.35;1.27;;;5.00;99.90;;;;;;5032872;28;20533;-82
2022/04/10 07:04:33;;;;;;;7.53;1.70;;;5.00;99.90;;;;;;5016091;28;20037;-82
2022/04/10 07:06:59;;;;;;;5.80;1.15;;;5.10;99.90;;;;;;5032802;28;20434;-82
2022/04/10 07:09:24;;;;;;;8.65;1.45;;;5.20;99.90;;;;;;5016054;28;20128;-82
2022/04/10 07:11:50;;;;;;;8.68;1.63;;;5.20;99.90;;;;;;5032123;28;20126;-83
2022/04/10 07:14:16;;;;;;;7.32;1.60;;;5.40;99.90;;;;;;5031998;28;20041;-83
2022/04/10 07:16:41;;;;;;;7.13;1.42;;;5.40;99.90;;;;;;5031884;28;20076;-82
2022/04/10 07:19:07;;;;;;;7.20;1.98;;;5.50;99.90;;;;;;5015863;28;20045;-83
2022/04/10 07:24:16;;;;;;;8.57;1.33;;;5.70;99.90;;;;;;5032267;28;20491;-83
2022/04/10 07:26:42;;;;;;;3.63;1.25;;;5.70;99.90;;;;;;5032352;28;20124;-83
2022/04/10 07:29:10;;;;;;;7.22;1.73;;;5.70;99.90;;;;;;5032060;28;20134;-83
2022/04/10 07:31:36;;;;;;;5.25;1.45;;;5.80;99.90;;;;;;5015689;28;20041;-83
2022/04/10 07:34:01;;;;;;;9.00;1.38;;;5.90;99.90;;;;;;5015270;28;20137;-83
2022/04/10 07:36:27;;;;;;;6.88;1.63;;;6.00;99.90;;;;;;5031799;28;20149;-82
2022/04/10 07:38:52;;;;;;;7.47;1.35;;;6.00;99.90;;;;;;5031708;28;20049;-83
2022/04/10 07:41:18;;;;;;;10.27;1.73;;;6.00;99.90;;;;;;5014782;28;20037;-83
2022/04/10 07:43:43;;;;;;;6.85;1.52;;;6.10;99.90;;;;;;5031837;28;20038;-82
2022/04/10 07:48:53;;;;;;;8.00;1.50;;;6.20;99.90;;;;;;5031961;28;20099;-83
2022/04/10 07:51:19;;;;;;;5.45;1.30;;;6.20;99.90;;;;;;5014893;28;20045;-83
2022/04/10 07:53:44;;;;;;;9.15;1.52;;;6.20;99.90;;;;;;5031678;28;20041;-83
2022/04/10 07:56:10;;;;;;;15.05;1.88;;;6.30;99.90;;;;;;5014512;28;20071;-83
2022/04/10 07:58:37;;;;;;;9.55;1.48;;;6.40;99.90;;;;;;5031506;28;20132;-82
2022/04/10 08:01:02;;;;;;;7.97;1.55;;;6.50;99.90;;;;;;5031705;28;20048;-83
2022/04/10 08:03:28;;;;;;;6.85;1.40;;;6.60;99.90;;;;;;5031149;28;20041;-83
2022/04/10 08:05:54;;;;;;;9.10;1.90;;;6.60;99.90;;;;;;5031381;28;20038;-83
2022/04/10 08:08:20;;;;;;;10.00;1.73;;;6.70;99.90;;;;;;5013419;28;20041;-83
2022/04/10 08:10:45;;;;;;;12.82;2.15;;;6.70;99.90;;;;;;5031031;28;20594;-83
2022/04/10 08:13:11;;;;;;;7.10;1.50;;;6.80;99.90;;;;;;5031555;28;20049;-82
2022/04/10 08:15:36;;;;;;;8.63;1.60;;;6.80;99.90;;;;;;5031358;28;20415;-83
2022/04/10 08:18:02;;;;;;;9.60;1.90;;;6.90;99.90;;;;;;5014872;28;20041;-82
2022/04/10 08:20:28;;;;;;;9.68;1.77;;;6.90;99.90;;;;;;5014531;28;20041;-83
2022/04/10 08:22:53;;;;;;;8.35;1.63;;;7.00;99.90;;;;;;5030831;28;20120;-83
2022/04/10 08:25:23;;;;;;;11.02;1.50;;;7.10;99.90;;;;;;5014982;28;20431;-83
2022/04/10 08:27:49;;;;;;;7.82;2.03;;;7.10;99.90;;;;;;5031124;28;20041;-82
2022/04/10 08:30:15;;;;;;;11.52;1.92;;;7.10;99.90;;;;;;5028640;28;20116;-82
2022/04/10 08:32:43;;;;;;;13.90;2.00;;;7.10;99.90;;;;;;5014105;28;20128;-83
2022/04/10 08:35:11;;;;;;;10.30;2.42;;;7.20;99.90;;;;;;5031071;28;20079;-82
2022/04/10 08:37:37;;;;;;;6.40;1.83;;;7.30;99.90;;;;;;5030903;28;20033;-83
2022/04/10 08:40:03;;;;;;;10.73;2.25;;;7.50;99.90;;;;;;5030721;28;20049;-83
2022/04/10 08:42:29;;;;;;;11.20;1.90;;;7.70;99.90;;;;;;5014264;28;20034;-83
2022/04/10 08:44:56;;;;;;;11.65;1.95;;;7.90;99.90;;;;;;5031070;28;20095;-83
2022/04/10 08:47:21;;;;;;;10.90;2.25;;;8.00;99.90;;;;;;5030938;28;20492;-83
2022/04/10 08:49:48;;;;;;;11.65;1.95;;;8.20;99.90;;;;;;5030400;28;20565;-83
2022/04/10 08:52:16;;;;;;;10.98;2.88;;;8.40;99.90;;;;;;5030327;28;20091;-83
2022/04/10 08:54:44;;;;;;;10.38;2.13;;;8.60;99.90;;;;;;5014295;28;20494;-83
2022/04/10 08:57:10;;;;;;;11.35;2.08;;;8.70;99.90;;;;;;5014156;28;20037;-83
2022/04/10 08:59:36;;;;;;;11.40;2.05;;;8.60;99.90;;;;;;5013780;28;20084;-83
2022/04/10 09:02:03;;;;;;;12.80;2.03;;;8.60;99.90;;;;;;5030441;28;20415;-83
2022/04/10 09:04:29;;;;;;;11.02;1.63;;;8.60;99.90;;;;;;5030931;28;20037;-83
2022/04/10 09:06:57;;;;;;;7.18;1.95;;;8.70;99.90;;;;;;5030461;28;20088;-83
2022/04/10 09:09:23;;;;;;;11.52;1.80;;;8.80;99.90;;;;;;5030493;28;20076;-83
2022/04/10 09:11:52;;;;;;;8.88;1.90;;;9.00;99.90;;;;;;5013609;28;20447;-83
2022/04/10 09:14:22;;;;;;;12.13;2.42;;;9.20;99.90;;;;;;5030136;28;20041;-83
2022/04/10 09:17:18;;;;;;;10.93;2.42;;;9.30;99.90;;;;;;5030479;28;20099;-83
2022/04/10 09:19:52;;;;;;;10.18;2.00;;;9.30;99.90;;;;;;5029995;28;20561;-83
2022/04/10 09:22:27;;;;;;;8.35;1.92;;;9.10;99.90;;;;;;5030369;28;20037;-84
2022/04/10 09:25:12;;;;;;;9.55;2.30;;;8.80;99.90;;;;;;5030571;28;20052;-83
2022/04/10 09:27:44;;;;;;;10.02;1.70;;;8.50;99.90;;;;;;5014185;28;20107;-83
2022/04/10 09:30:12;;;;;;;7.93;1.70;;;8.20;99.90;;;;;;5013232;28;20033;-83
2022/04/10 09:32:48;;;;;;;10.50;1.65;;;8.10;99.90;;;;;;5030023;28;20058;-83
2022/04/10 09:35:24;;;;;;;7.85;1.65;;;8.10;99.90;;;;;;5032613;28;20042;-83
2022/04/10 09:37:51;;;;;;;8.85;1.80;;;8.10;99.90;;;;;;5034389;28;20037;-83
2022/04/10 09:40:35;;;;;;;11.15;2.20;;;8.20;99.90;;;;;;5034374;28;20033;-83
2022/04/10 09:43:04;;;;;;;11.82;2.85;;;8.30;99.90;;;;;;5017614;28;20033;-83
2022/04/10 09:45:35;;;;;;;9.00;1.80;;;8.40;99.90;;;;;;5033988;28;20073;-83
2022/04/10 09:48:19;;;;;;;10.57;1.80;;;8.60;99.90;;;;;;5033601;28;20514;-83
2022/04/10 09:50:45;;;;;;;9.23;1.95;;;8.80;99.90;;;;;;5017043;28;20046;-83
2022/04/10 09:53:11;;;;;;;14.07;3.25;;;8.90;99.90;;;;;;5033161;28;20039;-82
2022/04/10 09:55:43;;;;;;;10.32;2.33;;;9.00;99.90;;;;;;5033910;28;20470;-83
2022/04/10 09:58:13;;;;;;;9.10;2.10;;;9.20;99.90;;;;;;5033771;28;20045;-83
2022/04/10 10:00:40;;;;;;;9.85;1.83;;;9.30;99.90;;;;;;5033855;28;20057;-83
2022/04/10 10:03:07;;;;;;;13.15;2.47;;;9.40;99.90;;;;;;5017560;28;20056;-83
2022/04/10 10:05:34;;;;;;;9.93;2.03;;;9.60;99.90;;;;;;5033780;28;20073;-83
2022/04/10 10:08:00;;;;;;;9.20;1.63;;;9.80;99.90;;;;;;5033975;28;20041;-83
2022/04/10 10:10:29;;;;;;;12.75;1.85;;;10.00;99.90;;;;;;5032794;28;20045;-83
2022/04/10 10:12:57;;;;;;;9.70;1.88;;;10.20;99.90;;;;;;5032556;28;20037;-83
2022/04/10 10:15:23;;;;;;;7.82;1.80;;;10.30;99.90;;;;;;5017421;28;20045;-83
2022/04/10 10:17:50;;;;;;;6.55;1.67;;;10.50;99.90;;;;;;5033600;28;20045;-83
2022/04/10 10:20:18;;;;;;;8.95;1.88;;;10.70;99.90;;;;;;5033317;28;20037;-83
2022/04/10 10:22:43;;;;;;;8.32;1.80;;;10.80;99.90;;;;;;5016816;28;20033;-83
2022/04/10 10:25:15;;;;;;;9.95;2.15;;;10.90;99.90;;;;;;5033040;28;20549;-83
2022/04/10 10:27:49;;;;;;;11.07;1.98;;;10.80;99.90;;;;;;5033580;28;20041;-83
2022/04/10 10:30:39;;;;;;;10.48;2.42;;;10.70;99.90;;;;;;5033118;28;20049;-83
2022/04/10 10:33:24;;;;;;;7.22;1.60;;;10.80;99.90;;;;;;5032905;28;20072;-83
2022/04/10 10:35:50;;;;;;;9.20;2.03;;;11.00;99.90;;;;;;5016935;28;20175;-83
2022/04/10 10:38:25;;;;;;;9.55;1.95;;;11.10;99.90;;;;;;5033252;28;20124;-83
2022/04/10 10:41:07;;;;;;;10.05;1.70;;;11.20;99.90;;;;;;5016405;28;20068;-83
2022/04/10 10:43:33;;;;;;;10.38;2.13;;;11.10;99.20;;;;;;5033184;28;20034;-83
2022/04/10 10:45:59;;;;;;;8.82;1.95;;;11.00;99.60;;;;;;5015853;28;20456;-83
2022/04/10 10:48:25;;;;;;;10.63;2.03;;;11.00;99.90;;;;;;5016652;28;20045;-82
2022/04/10 10:50:54;;;;;;;9.85;2.10;;;11.00;99.90;;;;;;5031997;28;20037;-83
2022/04/10 10:53:46;;;;;;;8.45;1.88;;;11.20;99.90;;;;;;5031874;28;20477;-82
2022/04/10 10:56:21;;;;;;;8.30;2.20;;;11.40;98.90;;;;;;5016855;28;20531;-83
2022/04/10 10:58:48;;;;;;;10.85;2.30;;;11.50;99.10;;;;;;5035302;28;20498;-83
2022/04/10 11:01:28;;;;;;;11.57;2.00;;;11.60;98.50;;;;;;5030345;28;20065;-82
2022/04/10 11:04:04;;;;;;;11.15;2.22;;;11.80;96.60;;;;;;5045931;28;20017;-82
2022/04/10 11:06:31;;;;;;;9.43;1.70;;;12.00;96.70;;;;;;5038235;28;20042;-83
2022/04/10 11:09:19;;;;;;;7.93;1.77;;;12.20;95.40;;;;;;5023453;28;20040;-82
2022/04/10 11:11:45;;;;;;;11.77;2.67;;;12.40;94.40;;;;;;5015892;28;20037;-82
2022/04/10 11:14:38;;;;;;;10.35;2.10;;;12.60;95.50;;;;;;5031904;28;20152;-83
2022/04/10 11:17:19;;;;;;;7.55;1.70;;;12.80;94.10;;;;;;5032724;28;20163;-82
2022/04/10 11:20:07;;;;;;;11.02;2.10;;;13.00;95.10;;;;;;5015505;28;20038;-83
2022/04/10 11:22:38;;;;;;;7.35;1.85;;;13.00;92.80;;;;;;5032322;28;20487;-83
2022/04/10 11:25:07;;;;;;;10.18;1.77;;;13.00;92.80;;;;;;5032188;28;20046;-83
2022/04/10 11:27:50;;;;;;;9.50;2.20;;;12.90;92.30;;;;;;5032149;28;20037;-82
2022/04/10 11:30:29;;;;;;;12.23;2.45;;;12.60;92.60;;;;;;5031636;28;20516;-83
2022/04/10 11:33:16;;;;;;;10.48;1.83;;;12.30;92.60;;;;;;5014968;28;20038;-83
2022/04/10 11:35:55;;;;;;;8.50;1.83;;;12.20;91.90;;;;;;5031591;28;20029;-83
2022/04/10 11:38:24;;;;;;;7.70;1.55;;;12.30;94.20;;;;;;5031569;28;20053;-82
2022/04/10 11:40:52;;;;;;;8.73;2.30;;;12.50;95.70;;;;;;5031776;28;20037;-82
2022/04/10 11:43:19;;;;;;;7.57;1.88;;;12.80;94.00;;;;;;5031918;28;20625;-82
2022/04/10 11:45:53;;;;;;;8.98;1.90;;;13.00;93.30;;;;;;5031037;28;20037;-82
2022/04/10 11:48:19;;;;;;;7.55;1.52;;;13.30;91.40;;;;;;5031753;28;20045;-82
2022/04/10 11:50:45;;;;;;;6.85;1.50;;;13.50;89.70;;;;;;5032301;28;20049;-82
2022/04/10 11:53:12;;;;;;;7.28;1.60;;;13.60;80.30;;;;;;5030853;28;20041;-83
2022/04/10 11:55:46;;;;;;;7.75;1.58;;;13.60;81.80;;;;;;5031858;28;20056;-82
2022/04/10 11:58:16;;;;;;;9.15;1.60;;;13.50;76.10;;;;;;5030637;28;20042;-82
2022/04/10 12:00:58;;;;;;;10.75;1.50;;;13.30;78.00;;;;;;5031467;28;20044;-82
2022/04/10 12:03:29;;;;;;;8.07;1.67;;;13.40;77.40;;;;;;5031356;28;20041;-82
2022/04/10 12:05:55;;;;;;;7.47;1.60;;;13.50;78.60;;;;;;5031869;28;20119;-82
2022/04/10 12:08:22;;;;;;;8.60;1.60;;;13.50;79.20;;;;;;5031381;28;20080;-83
2022/04/10 12:10:56;;;;;;;13.15;1.85;;;13.60;80.80;;;;;;5030927;28;20060;-83
2022/04/10 12:13:28;;;;;;;8.60;1.48;;;13.70;81.00;;;;;;5030735;28;20045;-82
2022/04/10 12:16:13;;;;;;;7.05;1.40;;;13.90;78.80;;;;;;5031488;28;20049;-82
2022/04/10 12:18:53;;;;;;;6.57;1.30;;;14.00;76.80;;;;;;5031199;28;20523;-83
2022/04/10 12:21:20;;;;;;;7.07;1.20;;;14.20;74.00;;;;;;5030959;28;20037;-83
2022/04/10 12:23:46;;;;;;;7.28;1.30;;;14.20;72.30;;;;;;5031081;28;20042;-83
2022/04/10 12:26:12;;;;;;;6.28;1.50;;;14.20;71.70;;;;;;5014719;28;20168;-83
2022/04/10 12:28:39;;;;;;;8.90;1.85;;;14.20;71.20;;;;;;5031001;28;20052;-83
2022/04/10 12:31:05;;;;;;;8.13;1.48;;;14.40;73.20;;;;;;5029657;28;20084;-83
2022/04/10 12:33:31;;;;;;;8.02;1.70;;;14.60;69.90;;;;;;5029741;28;20049;-83
2022/04/10 12:35:57;;;;;;;8.75;1.70;;;14.60;70.00;;;;;;5014657;28;20121;-83
2022/04/10 12:38:28;;;;;;;11.75;2.78;;;15.00;71.20;;;;;;5030625;28;20073;-83
2022/04/10 12:41:06;;;;;;;9.60;2.53;;;15.30;70.20;;;;;;5014376;28;20038;-83
2022/04/10 12:43:32;;;;;;;8.95;1.50;;;15.70;69.60;;;;;;5031137;28;20041;-83
2022/04/10 12:46:13;;;;;;;7.55;2.00;;;15.80;66.30;;;;;;5031290;28;20041;-83
2022/04/10 12:48:39;;;;;;;6.93;1.70;;;16.00;64.80;;;;;;5030851;28;20095;-83
2022/04/10 12:51:06;;;;;;;9.65;1.70;;;15.90;60.20;;;;;;5030207;28;20048;-83
2022/04/10 12:53:32;;;;;;;7.60;1.55;;;15.60;61.90;;;;;;5014199;28;20103;-84
2022/04/10 12:55:58;;;;;;;6.80;1.58;;;15.40;62.10;;;;;;5031085;28;20402;-83
2022/04/10 12:58:29;;;;;;;7.90;1.70;;;15.30;62.40;;;;;;5030622;28;20565;-83